HK4649G SKQU-SKNV
Flight info
| Callsign | HK4649G |
|---|---|
| Flight time | 0h 57m |
| Altitude | 10500 |
| Route | GUAYABAL DCT GUALANDAY DCT SALDANAS DCT NATAGAIMA DCT AIPE |
| Aircraft | PA31/L-SDFGRY/S |
Departure
| Time | 2026-04-12 18:53 |
|---|---|
| Airport | Mariquita Airport (SKQU) |
Arrival
| Time | 2026-04-12 19:50 |
|---|---|
| Airport | Benito Salas Airport (SKNV) |
| Time | Latitude | Longitude | Altitude | Speed | Heading |
|---|---|---|---|---|---|
| 2026-04-12 18:17 | 5.20933 | -74.88510 | 1562 ft | 0 kts | 180° |
| 2026-04-12 18:49 | 5.20925 | -74.88503 | 1562 ft | 4 kts | 98° |
| 2026-04-12 18:49 | 5.20893 | -74.88495 | 1563 ft | 4 kts | 159° |
| 2026-04-12 18:49 | 5.20887 | -74.88459 | 1562 ft | 8 kts | 87° |
| 2026-04-12 18:50 | 5.20886 | -74.88406 | 1559 ft | 10 kts | 100° |
| 2026-04-12 18:50 | 5.20826 | -74.88387 | 1560 ft | 11 kts | 180° |
| 2026-04-12 18:50 | 5.20731 | -74.88391 | 1562 ft | 15 kts | 185° |
| 2026-04-12 18:50 | 5.20635 | -74.88398 | 1564 ft | 12 kts | 183° |
| 2026-04-12 18:51 | 5.20535 | -74.88393 | 1566 ft | 15 kts | 166° |
| 2026-04-12 18:51 | 5.20461 | -74.88384 | 1566 ft | 4 kts | 180° |
| 2026-04-12 18:51 | 5.20447 | -74.88400 | 1567 ft | 2 kts | 274° |
| 2026-04-12 18:51 | 5.20456 | -74.88408 | 1567 ft | 0 kts | 5° |
| 2026-04-12 18:52 | 5.20458 | -74.88408 | 1567 ft | 0 kts | 5° |
| 2026-04-12 18:52 | 5.20586 | -74.88399 | 1565 ft | 54 kts | 4° |
| 2026-04-12 18:52 | 5.21172 | -74.88373 | 1563 ft | 103 kts | 4° |
| 2026-04-12 18:53 | 5.21928 | -74.88283 | 1707 ft | 115 kts | 8° |
| 2026-04-12 18:53 | 5.22751 | -74.88155 | 1946 ft | 123 kts | 2° |
| 2026-04-12 18:53 | 5.23616 | -74.88164 | 2223 ft | 126 kts | 6° |
| 2026-04-12 18:53 | 5.24337 | -74.87730 | 2484 ft | 120 kts | 58° |
| 2026-04-12 18:54 | 5.24503 | -74.86961 | 2710 ft | 114 kts | 102° |
| 2026-04-12 18:54 | 5.24080 | -74.86324 | 2942 ft | 111 kts | 146° |
| 2026-04-12 18:54 | 5.23336 | -74.86129 | 3163 ft | 112 kts | 173° |
| 2026-04-12 18:54 | 5.22546 | -74.86199 | 3385 ft | 113 kts | 186° |
| 2026-04-12 18:55 | 5.21768 | -74.86354 | 3608 ft | 114 kts | 188° |
| 2026-04-12 18:55 | 5.20991 | -74.86522 | 3832 ft | 115 kts | 190° |
| 2026-04-12 18:55 | 5.20214 | -74.86706 | 4056 ft | 115 kts | 193° |
| 2026-04-12 18:55 | 5.19443 | -74.86948 | 4277 ft | 116 kts | 194° |
| 2026-04-12 18:56 | 5.18672 | -74.87196 | 4503 ft | 116 kts | 195° |
| 2026-04-12 18:56 | 5.17897 | -74.87440 | 4738 ft | 116 kts | 195° |
| 2026-04-12 18:56 | 5.17128 | -74.87679 | 4967 ft | 116 kts | 195° |
| 2026-04-12 18:56 | 5.16360 | -74.87901 | 5197 ft | 115 kts | 188° |
| 2026-04-12 18:57 | 5.15569 | -74.88024 | 5425 ft | 115 kts | 186° |
| 2026-04-12 18:57 | 5.14776 | -74.88145 | 5645 ft | 115 kts | 186° |
| 2026-04-12 18:57 | 5.13959 | -74.88271 | 5841 ft | 119 kts | 186° |
| 2026-04-12 18:57 | 5.13125 | -74.88391 | 6043 ft | 121 kts | 185° |
| 2026-04-12 18:58 | 5.12293 | -74.88442 | 6250 ft | 121 kts | 179° |
| 2026-04-12 18:58 | 5.11443 | -74.88463 | 6455 ft | 120 kts | 179° |
| 2026-04-12 18:58 | 5.10612 | -74.88481 | 6662 ft | 119 kts | 179° |
| 2026-04-12 18:58 | 5.09779 | -74.88502 | 6863 ft | 118 kts | 178° |
| 2026-04-12 18:59 | 5.08952 | -74.88500 | 7064 ft | 118 kts | 177° |
| 2026-04-12 18:59 | 5.08179 | -74.88491 | 7252 ft | 118 kts | 178° |
| 2026-04-12 18:59 | 5.07351 | -74.88481 | 7449 ft | 118 kts | 177° |
| 2026-04-12 18:59 | 5.06530 | -74.88474 | 7637 ft | 118 kts | 177° |
| 2026-04-12 19:00 | 5.05706 | -74.88464 | 7832 ft | 118 kts | 177° |
| 2026-04-12 19:00 | 5.04880 | -74.88454 | 8030 ft | 118 kts | 177° |
| 2026-04-12 19:00 | 5.04058 | -74.88449 | 8230 ft | 118 kts | 177° |
| 2026-04-12 19:00 | 5.03235 | -74.88444 | 8414 ft | 118 kts | 177° |
| 2026-04-12 19:01 | 5.02417 | -74.88437 | 8609 ft | 118 kts | 177° |
| 2026-04-12 19:01 | 5.01586 | -74.88447 | 8808 ft | 118 kts | 179° |
| 2026-04-12 19:01 | 5.00774 | -74.88470 | 9005 ft | 116 kts | 180° |
| 2026-04-12 19:01 | 4.99960 | -74.88492 | 9197 ft | 116 kts | 179° |
| 2026-04-12 19:02 | 4.99145 | -74.88510 | 9396 ft | 116 kts | 179° |
| 2026-04-12 19:02 | 4.98337 | -74.88551 | 9596 ft | 117 kts | 181° |
| 2026-04-12 19:02 | 4.97519 | -74.88601 | 9797 ft | 118 kts | 181° |
| 2026-04-12 19:02 | 4.96699 | -74.88650 | 9989 ft | 118 kts | 181° |
| 2026-04-12 19:03 | 4.95863 | -74.88717 | 10157 ft | 123 kts | 183° |
| 2026-04-12 19:03 | 4.94942 | -74.88847 | 10133 ft | 141 kts | 186° |
| 2026-04-12 19:03 | 4.93914 | -74.89022 | 10124 ft | 154 kts | 187° |
| 2026-04-12 19:03 | 4.92834 | -74.89222 | 10122 ft | 160 kts | 188° |
| 2026-04-12 19:04 | 4.91720 | -74.89427 | 10135 ft | 162 kts | 188° |
| 2026-04-12 19:04 | 4.90604 | -74.89637 | 10121 ft | 163 kts | 188° |
| 2026-04-12 19:04 | 4.89479 | -74.89883 | 10140 ft | 164 kts | 191° |
| 2026-04-12 19:04 | 4.88372 | -74.90153 | 10134 ft | 166 kts | 191° |
| 2026-04-12 19:05 | 4.87230 | -74.90432 | 10132 ft | 166 kts | 191° |
| 2026-04-12 19:05 | 4.86100 | -74.90705 | 10136 ft | 167 kts | 191° |
| 2026-04-12 19:05 | 4.84978 | -74.90975 | 10141 ft | 166 kts | 191° |
| 2026-04-12 19:05 | 4.83837 | -74.91251 | 10151 ft | 166 kts | 191° |
| 2026-04-12 19:06 | 4.82714 | -74.91518 | 10149 ft | 167 kts | 191° |
| 2026-04-12 19:06 | 4.81634 | -74.91771 | 10140 ft | 168 kts | 191° |
| 2026-04-12 19:06 | 4.80480 | -74.92040 | 10119 ft | 168 kts | 191° |
| 2026-04-12 19:06 | 4.79374 | -74.92298 | 10128 ft | 167 kts | 191° |
| 2026-04-12 19:07 | 4.78239 | -74.92561 | 10110 ft | 168 kts | 191° |
| 2026-04-12 19:07 | 4.77095 | -74.92829 | 10122 ft | 166 kts | 191° |
| 2026-04-12 19:07 | 4.75978 | -74.93095 | 10138 ft | 165 kts | 191° |
| 2026-04-12 19:07 | 4.74848 | -74.93394 | 10142 ft | 167 kts | 193° |
| 2026-04-12 19:08 | 4.73715 | -74.93707 | 10124 ft | 168 kts | 193° |
| 2026-04-12 19:08 | 4.72579 | -74.94020 | 10109 ft | 168 kts | 193° |
| 2026-04-12 19:08 | 4.71445 | -74.94334 | 10104 ft | 168 kts | 193° |
| 2026-04-12 19:08 | 4.70312 | -74.94648 | 10096 ft | 168 kts | 193° |
| 2026-04-12 19:09 | 4.69186 | -74.94958 | 10098 ft | 167 kts | 193° |
| 2026-04-12 19:09 | 4.68060 | -74.95267 | 10098 ft | 167 kts | 193° |
| 2026-04-12 19:09 | 4.66932 | -74.95577 | 10096 ft | 166 kts | 193° |
| 2026-04-12 19:09 | 4.65823 | -74.95883 | 10104 ft | 165 kts | 193° |
| 2026-04-12 19:10 | 4.64701 | -74.96192 | 10116 ft | 165 kts | 193° |
| 2026-04-12 19:10 | 4.63585 | -74.96491 | 10095 ft | 167 kts | 193° |
| 2026-04-12 19:10 | 4.62451 | -74.96801 | 10089 ft | 167 kts | 193° |
| 2026-04-12 19:10 | 4.61322 | -74.97110 | 10070 ft | 167 kts | 193° |
| 2026-04-12 19:11 | 4.60210 | -74.97417 | 10076 ft | 166 kts | 193° |
| 2026-04-12 19:11 | 4.59098 | -74.97724 | 10076 ft | 166 kts | 193° |
| 2026-04-12 19:11 | 4.57974 | -74.98010 | 10090 ft | 165 kts | 190° |
| 2026-04-12 19:11 | 4.56836 | -74.98241 | 10079 ft | 166 kts | 189° |
| 2026-04-12 19:12 | 4.55695 | -74.98447 | 10069 ft | 166 kts | 188° |
| 2026-04-12 19:12 | 4.54545 | -74.98651 | 10067 ft | 166 kts | 188° |
| 2026-04-12 19:12 | 4.53405 | -74.98856 | 10062 ft | 166 kts | 188° |
| 2026-04-12 19:12 | 4.52272 | -74.99058 | 10070 ft | 166 kts | 188° |
| 2026-04-12 19:13 | 4.51119 | -74.99270 | 10071 ft | 166 kts | 188° |
| 2026-04-12 19:13 | 4.49982 | -74.99474 | 10062 ft | 166 kts | 188° |
| 2026-04-12 19:13 | 4.48838 | -74.99681 | 10053 ft | 166 kts | 188° |
| 2026-04-12 19:13 | 4.47694 | -74.99883 | 10050 ft | 166 kts | 188° |
| 2026-04-12 19:14 | 4.46549 | -75.00085 | 10050 ft | 165 kts | 188° |
| 2026-04-12 19:14 | 4.45423 | -75.00288 | 10057 ft | 165 kts | 188° |
| 2026-04-12 19:14 | 4.44284 | -75.00491 | 10050 ft | 165 kts | 187° |
| 2026-04-12 19:14 | 4.43157 | -75.00697 | 10059 ft | 164 kts | 188° |
| 2026-04-12 19:15 | 4.42015 | -75.00892 | 10055 ft | 164 kts | 188° |
| 2026-04-12 19:15 | 4.40875 | -75.01077 | 10051 ft | 165 kts | 187° |
| 2026-04-12 19:15 | 4.39731 | -75.01256 | 10054 ft | 166 kts | 187° |
| 2026-04-12 19:15 | 4.38579 | -75.01444 | 10053 ft | 167 kts | 187° |
| 2026-04-12 19:16 | 4.37440 | -75.01627 | 10057 ft | 167 kts | 186° |
| 2026-04-12 19:16 | 4.36268 | -75.01814 | 10057 ft | 167 kts | 188° |
| 2026-04-12 19:16 | 4.35111 | -75.01998 | 10060 ft | 167 kts | 187° |
| 2026-04-12 19:16 | 4.33962 | -75.02172 | 10046 ft | 167 kts | 187° |
| 2026-04-12 19:17 | 4.32803 | -75.02352 | 10045 ft | 166 kts | 188° |
| 2026-04-12 19:17 | 4.31648 | -75.02530 | 10052 ft | 166 kts | 187° |
| 2026-04-12 19:17 | 4.30493 | -75.02706 | 10044 ft | 166 kts | 187° |
| 2026-04-12 19:17 | 4.29341 | -75.02886 | 10044 ft | 166 kts | 187° |
| 2026-04-12 19:18 | 4.28189 | -75.03053 | 10042 ft | 165 kts | 180° |
| 2026-04-12 19:18 | 4.27048 | -75.02911 | 10047 ft | 164 kts | 168° |
| 2026-04-12 19:18 | 4.25927 | -75.02700 | 10032 ft | 164 kts | 168° |
| 2026-04-12 19:18 | 4.24788 | -75.02486 | 10031 ft | 165 kts | 168° |
| 2026-04-12 19:19 | 4.23654 | -75.02241 | 10019 ft | 165 kts | 166° |
| 2026-04-12 19:19 | 4.22548 | -75.01985 | 10023 ft | 164 kts | 166° |
| 2026-04-12 19:19 | 4.21419 | -75.01759 | 10024 ft | 164 kts | 169° |
| 2026-04-12 19:19 | 4.20277 | -75.01566 | 10016 ft | 165 kts | 172° |
| 2026-04-12 19:20 | 4.19125 | -75.01489 | 9999 ft | 166 kts | 176° |
| 2026-04-12 19:20 | 4.17969 | -75.01466 | 9997 ft | 166 kts | 178° |
| 2026-04-12 19:20 | 4.16805 | -75.01450 | 9987 ft | 166 kts | 178° |
| 2026-04-12 19:20 | 4.15648 | -75.01447 | 9986 ft | 166 kts | 180° |
| 2026-04-12 19:21 | 4.14466 | -75.01472 | 9975 ft | 167 kts | 180° |
| 2026-04-12 19:21 | 4.13302 | -75.01500 | 9971 ft | 168 kts | 180° |
| 2026-04-12 19:21 | 4.12135 | -75.01527 | 9965 ft | 167 kts | 181° |
| 2026-04-12 19:21 | 4.10955 | -75.01559 | 9953 ft | 167 kts | 180° |
| 2026-04-12 19:22 | 4.09806 | -75.01586 | 9963 ft | 166 kts | 180° |
| 2026-04-12 19:22 | 4.08640 | -75.01618 | 9973 ft | 167 kts | 180° |
| 2026-04-12 19:22 | 4.07465 | -75.01652 | 9964 ft | 168 kts | 180° |
| 2026-04-12 19:22 | 4.06276 | -75.01702 | 9957 ft | 168 kts | 182° |
| 2026-04-12 19:23 | 4.05101 | -75.01780 | 9954 ft | 169 kts | 182° |
| 2026-04-12 19:23 | 4.03912 | -75.01860 | 9951 ft | 169 kts | 182° |
| 2026-04-12 19:23 | 4.02739 | -75.01939 | 9956 ft | 169 kts | 182° |
| 2026-04-12 19:23 | 4.01558 | -75.02010 | 9957 ft | 169 kts | 182° |
| 2026-04-12 19:24 | 4.00377 | -75.02061 | 9955 ft | 169 kts | 181° |
| 2026-04-12 19:24 | 3.99191 | -75.02110 | 9956 ft | 169 kts | 181° |
| 2026-04-12 19:24 | 3.97999 | -75.02158 | 9953 ft | 169 kts | 181° |
| 2026-04-12 19:24 | 3.96828 | -75.02199 | 9951 ft | 169 kts | 179° |
| 2026-04-12 19:25 | 3.95649 | -75.02207 | 9955 ft | 168 kts | 179° |
| 2026-04-12 19:25 | 3.94468 | -75.02216 | 9959 ft | 167 kts | 179° |
| 2026-04-12 19:25 | 3.93297 | -75.02224 | 9959 ft | 167 kts | 179° |
| 2026-04-12 19:25 | 3.92128 | -75.02236 | 9976 ft | 166 kts | 179° |
| 2026-04-12 19:26 | 3.90968 | -75.02249 | 9984 ft | 166 kts | 179° |
| 2026-04-12 19:26 | 3.89828 | -75.02408 | 9976 ft | 168 kts | 192° |
| 2026-04-12 19:26 | 3.88682 | -75.02683 | 9978 ft | 169 kts | 192° |
| 2026-04-12 19:26 | 3.87528 | -75.02959 | 9963 ft | 170 kts | 192° |
| 2026-04-12 19:27 | 3.86365 | -75.03241 | 9971 ft | 170 kts | 192° |
| 2026-04-12 19:27 | 3.85204 | -75.03523 | 9964 ft | 170 kts | 192° |
| 2026-04-12 19:27 | 3.84052 | -75.03809 | 9964 ft | 170 kts | 192° |
| 2026-04-12 19:27 | 3.82909 | -75.04091 | 9966 ft | 169 kts | 192° |
| 2026-04-12 19:28 | 3.81757 | -75.04378 | 9978 ft | 169 kts | 192° |
| 2026-04-12 19:28 | 3.80610 | -75.04667 | 9984 ft | 168 kts | 192° |
| 2026-04-12 19:28 | 3.79483 | -75.04955 | 9980 ft | 168 kts | 192° |
| 2026-04-12 19:28 | 3.78343 | -75.05246 | 9999 ft | 167 kts | 192° |
| 2026-04-12 19:29 | 3.77200 | -75.05538 | 10001 ft | 168 kts | 192° |
| 2026-04-12 19:29 | 3.76058 | -75.05831 | 9984 ft | 169 kts | 192° |
| 2026-04-12 19:29 | 3.74914 | -75.06127 | 9991 ft | 170 kts | 192° |
| 2026-04-12 19:29 | 3.73760 | -75.06420 | 9993 ft | 171 kts | 192° |
| 2026-04-12 19:30 | 3.72597 | -75.06717 | 9996 ft | 171 kts | 192° |
| 2026-04-12 19:30 | 3.71437 | -75.07014 | 9996 ft | 172 kts | 192° |
| 2026-04-12 19:30 | 3.70275 | -75.07312 | 10007 ft | 171 kts | 192° |
| 2026-04-12 19:30 | 3.69128 | -75.07611 | 10022 ft | 170 kts | 193° |
| 2026-04-12 19:31 | 3.67995 | -75.07922 | 10204 ft | 158 kts | 193° |
| 2026-04-12 19:31 | 3.66994 | -75.08202 | 10425 ft | 148 kts | 194° |
| 2026-04-12 19:31 | 3.65975 | -75.08488 | 10467 ft | 152 kts | 193° |
| 2026-04-12 19:31 | 3.64936 | -75.08778 | 10464 ft | 156 kts | 193° |
| 2026-04-12 19:32 | 3.63917 | -75.09058 | 10391 ft | 149 kts | 193° |
| 2026-04-12 19:32 | 3.62913 | -75.09345 | 10206 ft | 151 kts | 193° |
| 2026-04-12 19:32 | 3.61889 | -75.09637 | 10017 ft | 153 kts | 193° |
| 2026-04-12 19:32 | 3.60848 | -75.09934 | 9828 ft | 154 kts | 193° |
| 2026-04-12 19:33 | 3.59820 | -75.10242 | 9642 ft | 156 kts | 197° |
| 2026-04-12 19:33 | 3.58801 | -75.10626 | 9462 ft | 156 kts | 198° |
| 2026-04-12 19:33 | 3.57778 | -75.11025 | 9294 ft | 157 kts | 199° |
| 2026-04-12 19:33 | 3.56763 | -75.11429 | 9127 ft | 156 kts | 199° |
| 2026-04-12 19:34 | 3.55748 | -75.11838 | 8957 ft | 156 kts | 199° |
| 2026-04-12 19:34 | 3.54730 | -75.12242 | 8786 ft | 156 kts | 199° |
| 2026-04-12 19:34 | 3.53722 | -75.12646 | 8619 ft | 155 kts | 199° |
| 2026-04-12 19:34 | 3.52772 | -75.13029 | 8454 ft | 155 kts | 199° |
| 2026-04-12 19:35 | 3.51775 | -75.13438 | 8288 ft | 154 kts | 199° |
| 2026-04-12 19:35 | 3.50777 | -75.13849 | 8108 ft | 154 kts | 199° |
| 2026-04-12 19:35 | 3.49777 | -75.14259 | 7935 ft | 153 kts | 199° |
| 2026-04-12 19:35 | 3.48787 | -75.14642 | 7750 ft | 153 kts | 199° |
| 2026-04-12 19:36 | 3.47782 | -75.15031 | 7559 ft | 153 kts | 199° |
| 2026-04-12 19:36 | 3.46784 | -75.15419 | 7381 ft | 153 kts | 197° |
| 2026-04-12 19:36 | 3.45798 | -75.15802 | 7209 ft | 153 kts | 199° |
| 2026-04-12 19:36 | 3.44793 | -75.16193 | 7021 ft | 153 kts | 198° |
| 2026-04-12 19:37 | 3.43797 | -75.16574 | 6839 ft | 153 kts | 197° |
| 2026-04-12 19:37 | 3.42797 | -75.16916 | 6660 ft | 152 kts | 195° |
| 2026-04-12 19:37 | 3.41791 | -75.17252 | 6485 ft | 152 kts | 195° |
| 2026-04-12 19:37 | 3.40778 | -75.17588 | 6303 ft | 152 kts | 195° |
| 2026-04-12 19:38 | 3.39775 | -75.17917 | 6127 ft | 152 kts | 195° |
| 2026-04-12 19:38 | 3.38756 | -75.18249 | 5943 ft | 152 kts | 195° |
| 2026-04-12 19:38 | 3.37749 | -75.18583 | 5763 ft | 151 kts | 196° |
| 2026-04-12 19:38 | 3.36748 | -75.18913 | 5584 ft | 151 kts | 195° |
| 2026-04-12 19:39 | 3.35752 | -75.19243 | 5407 ft | 151 kts | 195° |
| 2026-04-12 19:39 | 3.34752 | -75.19580 | 5232 ft | 151 kts | 196° |
| 2026-04-12 19:39 | 3.33760 | -75.19926 | 5062 ft | 150 kts | 197° |
| 2026-04-12 19:39 | 3.32762 | -75.20277 | 4877 ft | 150 kts | 197° |
| 2026-04-12 19:40 | 3.31779 | -75.20618 | 4703 ft | 150 kts | 196° |
| 2026-04-12 19:40 | 3.30789 | -75.20963 | 4528 ft | 150 kts | 197° |
| 2026-04-12 19:40 | 3.29798 | -75.21306 | 4351 ft | 150 kts | 197° |
| 2026-04-12 19:40 | 3.28809 | -75.21638 | 4173 ft | 150 kts | 196° |
| 2026-04-12 19:41 | 3.27822 | -75.21967 | 4000 ft | 150 kts | 197° |
| 2026-04-12 19:41 | 3.26818 | -75.22305 | 3822 ft | 150 kts | 196° |
| 2026-04-12 19:41 | 3.25828 | -75.22638 | 3646 ft | 149 kts | 195° |
| 2026-04-12 19:41 | 3.24856 | -75.22967 | 3481 ft | 148 kts | 196° |
| 2026-04-12 19:42 | 3.23878 | -75.23305 | 3313 ft | 146 kts | 197° |
| 2026-04-12 19:42 | 3.22912 | -75.23637 | 3140 ft | 145 kts | 197° |
| 2026-04-12 19:42 | 3.21955 | -75.23954 | 2973 ft | 144 kts | 195° |
| 2026-04-12 19:43 | 3.19996 | -75.24345 | 2632 ft | 141 kts | 188° |
| 2026-04-12 19:43 | 3.19040 | -75.24508 | 2538 ft | 135 kts | 188° |
| 2026-04-12 19:43 | 3.18108 | -75.24666 | 2560 ft | 135 kts | 188° |
| 2026-04-12 19:43 | 3.17178 | -75.24829 | 2562 ft | 134 kts | 189° |
| 2026-04-12 19:44 | 3.16251 | -75.25008 | 2567 ft | 133 kts | 189° |
| 2026-04-12 19:44 | 3.15358 | -75.25180 | 2569 ft | 129 kts | 189° |
| 2026-04-12 19:44 | 3.14489 | -75.25345 | 2569 ft | 123 kts | 189° |
| 2026-04-12 19:44 | 3.13639 | -75.25508 | 2575 ft | 126 kts | 189° |
| 2026-04-12 19:45 | 3.12750 | -75.25671 | 2585 ft | 131 kts | 189° |
| 2026-04-12 19:45 | 3.11842 | -75.25836 | 2596 ft | 135 kts | 189° |
| 2026-04-12 19:45 | 3.10894 | -75.26006 | 2589 ft | 139 kts | 189° |
| 2026-04-12 19:45 | 3.09939 | -75.26184 | 2585 ft | 137 kts | 190° |
| 2026-04-12 19:46 | 3.09008 | -75.26355 | 2568 ft | 132 kts | 190° |
| 2026-04-12 19:46 | 3.08116 | -75.26517 | 2557 ft | 128 kts | 189° |
| 2026-04-12 19:46 | 3.07256 | -75.26676 | 2547 ft | 124 kts | 188° |
| 2026-04-12 19:46 | 3.06407 | -75.26827 | 2555 ft | 122 kts | 190° |
| 2026-04-12 19:47 | 3.05553 | -75.26984 | 2555 ft | 125 kts | 189° |
| 2026-04-12 19:47 | 3.04682 | -75.27142 | 2540 ft | 127 kts | 189° |
| 2026-04-12 19:47 | 3.03808 | -75.27302 | 2547 ft | 128 kts | 189° |
| 2026-04-12 19:47 | 3.02924 | -75.27480 | 2554 ft | 129 kts | 191° |
| 2026-04-12 19:48 | 3.02045 | -75.27670 | 2551 ft | 129 kts | 192° |
| 2026-04-12 19:48 | 3.01173 | -75.27907 | 2514 ft | 124 kts | 195° |
| 2026-04-12 19:48 | 3.00366 | -75.28096 | 2419 ft | 112 kts | 192° |
| 2026-04-12 19:48 | 2.99649 | -75.28241 | 2299 ft | 96 kts | 193° |
| 2026-04-12 19:49 | 2.99023 | -75.28442 | 2193 ft | 96 kts | 197° |
| 2026-04-12 19:49 | 2.98371 | -75.28613 | 2055 ft | 97 kts | 193° |
| 2026-04-12 19:49 | 2.97711 | -75.28754 | 1932 ft | 95 kts | 192° |
| 2026-04-12 19:49 | 2.97062 | -75.28909 | 1833 ft | 95 kts | 193° |
| 2026-04-12 19:50 | 2.96400 | -75.29053 | 1686 ft | 99 kts | 196° |
| 2026-04-12 19:50 | 2.95748 | -75.29227 | 1544 ft | 91 kts | 194° |
| 2026-04-12 19:50 | 2.95246 | -75.29347 | 1510 ft | 48 kts | 195° |
| 2026-04-12 19:50 | 2.94984 | -75.29414 | 1504 ft | 30 kts | 195° |
| 2026-04-12 19:51 | 2.94839 | -75.29452 | 1501 ft | 16 kts | 197° |
| 2026-04-12 19:51 | 2.94744 | -75.29469 | 1501 ft | 14 kts | 163° |
| 2026-04-12 19:51 | 2.94671 | -75.29424 | 1502 ft | 8 kts | 118° |
| 2026-04-12 19:51 | 2.94667 | -75.29412 | 1502 ft | 0 kts | 104° |
| 2026-04-12 19:52 | 2.94667 | -75.29410 | 1502 ft | 2 kts | 104° |
| 2026-04-12 19:52 | 2.94652 | -75.29394 | 1502 ft | 3 kts | 193° |
| 2026-04-12 19:53 | 2.94609 | -75.29404 | 1501 ft | 7 kts | 194° |
| 2026-04-12 19:53 | 2.94572 | -75.29412 | 1500 ft | 2 kts | 159° |
| 2026-04-12 19:53 | 2.94566 | -75.29391 | 1500 ft | 2 kts | 85° |
| 2026-04-12 19:53 | 2.94568 | -75.29388 | 1500 ft | 0 kts | 43° |
| 2026-04-12 19:54 | 2.94576 | -75.29386 | 1501 ft | 1 kts | 8° |
| 2026-04-12 19:54 | 2.94578 | -75.29385 | 1501 ft | 0 kts | 13° |